LTFJ Airport Information

Runway Information
Runway 06 Length 9843 ft width 148 ft
Elevation 293 ft Threshold 0 ft Heading 64
Runway 24 Length 9843 ft Width 148 ft
Elevation 304 ft Threshold 0 ft Heading 244
Airport Frequencies
Type ATIS Name ATIS Frequency 128.55 MHZ
Type GND Name GND Frequency 121.75 MHZ
Type TWR Name TWR Frequency 37.877 MHZ
Type TWR Name TWR Frequency 118.8 MHZ
Airport Navaids
Type NDB Name Sabiha Gokcen Frequency 347 KHZ
Type VOR-DME Name Sabiha Gokcen Frequency 108800 KHZ
Airport Weather Information & NOTAM
ADDS - METARS form results

(2243 UTC 19 September 2018)
Data provider http://aviationweather.gov/metar/data/
 
METAR text: LTFJ 192220Z 05006KT 9999 SCT035 17/14 Q1019 NOSIG
Conditions at: LTFJ (SABIHA GOKCEN , TR) observed 2220 UTC 19 September 2018
Temperature: 17.0°C (63°F)
Dewpoint: 14.0°C (57°F) [RH = 82%]
Pressure (altimeter): 30.09 inches Hg (1019.0 mb)
Winds: from the NE (50 degrees) at 7 MPH (6 knots; 3.1 m/s)
Visibility: 6 or more miles (10+ km)
Ceiling: at least 12,000 feet AGL
Clouds: scattered clouds at 3500 feet AGL
Weather: no significant weather observed at this time

METAR text: LTFJ 192150Z 05006KT 9999 SCT035 17/14 Q1019 NOSIG
Conditions at: LTFJ (SABIHA GOKCEN , TR) observed 2150 UTC 19 September 2018
Temperature: 17.0°C (63°F)
Dewpoint: 14.0°C (57°F) [RH = 82%]
Pressure (altimeter): 30.09 inches Hg (1019.0 mb)
Winds: from the NE (50 degrees) at 7 MPH (6 knots; 3.1 m/s)
Visibility: 6 or more miles (10+ km)
Ceiling: at least 12,000 feet AGL
Clouds: scattered clouds at 3500 feet AGL
Weather: no significant weather observed at this time

Forecast for: LTFJ (SABIHA GOKCEN , TR)
Text: TAF LTFJ 191640Z 1918/2018 03012KT 9999 SCT035
Forecast period: 1800 UTC 19 September 2018 to 1800 UTC 20 September 2018
Forecast type: FROM: standard forecast or significant change
Winds: from the NNE (30 degrees) at 14 MPH (12 knots; 6.2 m/s)
Visibility: 6 or more miles 10+ km)
Ceiling: at least 12,000 feet AGL
Clouds: scattered clouds at 3500 feet AGL
Weather: no significant weather forecast for this period
Text: TEMPO 2012/2016 03018G28KT
Forecast period: 1200 to 1600 UTC 20 September 2018
Forecast type: TEMPORARY: The following changes expected for less than half the time period
Winds: from the NNE (30 degrees) at 21 MPH (18 knots; 9.3 m/s)
gusting to 32 MPH (28 knots; 14.4 m/s)
Visibility: missing
Ceiling: unknown
Clouds: missing
Weather: no significant weather forecast for this period